Aérodrome :
LOGIN :

S'inscrire | Disclaimer

   EN    FR    IT 

 










Légende :    VFR   VFR Marginal   IFR   IFR Intensif   IFR Très Intensif
Visi : 
Plafond : 
>= 8 km
>= 3000ft
5 à 8 km
1000 à 3000 ft
1500m à 5 km
500 à 1000 ft
800 à 1500m
200 à 500 ft
< 800m
< 200 ft
Symboles :   Orages  Brouillard  Fortes neiges  Fortes précipitations  Vent > 20 kt
SIGMETs :   Divers  Orages  Givrage  Turbulence  Onde Orograph.  Cendres Volcan.







- Altitude de l'aérodrome : 2661 ft
- Code IATA : CBH


DAOR - Béchar Boudghene Ben Ali Lotfi

DERNIER METAR :
  • 181600Z 20005KT 9999 FEW040 SCT100 30/14 Q1020

METARs EXPIRÉS :
  • 181500Z 22008KT 9999 FEW040 BKN233 29/15 Q1021
  • 181400Z 24007KT 9999 FEW040 SCT233 30/15 Q1021

TAF TAF DAOR
Valide du 18 à 15h jusqu'au 19 à 00h UTC


181400Z 1815/1824 24006KT 9999 FEW040 SCT233
PROB30
TEMPO 1815/1822 FEW033CB
Pas de NOTAMs connus pour ce terrain.
1 SIGMET publié pour la FIR Alger (DAAA) :
 
Orages noyés dans la masse
DAAA SIGMET 2 VALID 181500/181800 DAMM
DAAA ALGER FIR EMBD TS FCST WI N3719 E00650 - N3319 E00554 - N3321 E00155 - N3709 E00301 - N3719 E00650 TOP FL380 MOV NE INTSF=



MET'MAP, la Météo Aéronautique d'un coup d'oeil ! - Copyright ORBIFLY Décembre 2007 - Disclaimer

ORBIFLY MET'MAP TEAM :

Programmation & Développement : Alexandra Zaïnal
Conception & Développement : Baudouin d'Aumeries
Co-Programmation & Développement : Marc-Olivier Méhu
Soutien technique & logistique : Manuel Goepfert

Contact : metmap@orbifly.com




SOURCES & CREDITS :

   NOAA